logo
Search for airport 
image banner adimage banner adimage banner ad
image banner ad

LKZELE - Zelec

Located in Planá Nad Lužnicí, Czech Republic

ICAO - , IATA -

Data provided by Airmate  

General information

Coordinates: N49°19'50" E14°39'33"
Elevation is 1513 feet MSL.
 
View others Airports in South Bohemian Region

Operational data

Special qualification required
Current time UTC:
Current local time:
Weather at : - ( 0 km )
METAR: ZMUB 210000Z 34007MPS 8000 SNRA OVC030 00/M02 Q1003 NOSIG RMK QFE646.1 86 NW MO
View NOTAMs / SUP AIP / TFR affecting this airport [VIEW]
Communications frequencies: [VIEW]

Runways:

RWY identifierQFULength (ft)Width (ft)SurfaceLDA (ft)
18178°1772131GRASS1772
36358°1772131GRASS1772

Airport contact information

Address: Planá Nad Lužnicí Czech Republic

Satellite view of LKZELE